sensor_id;sensor_type;location;lat;lon;timestamp;pressure;altitude;pressure_sealevel;temperature;humidity
56600;BME280;51832;48.152;11.530;2022-12-18T00:01:51;96469.81;;;0.13;67.87
56600;BME280;51832;48.152;11.530;2022-12-18T00:06:52;96450.31;;;-0.01;69.13
56600;BME280;51832;48.152;11.530;2022-12-18T00:11:52;96460.28;;;-0.27;66.74
56600;BME280;51832;48.152;11.530;2022-12-18T00:16:53;96459.22;;;0.25;66.87
56600;BME280;51832;48.152;11.530;2022-12-18T00:21:53;96460.09;;;-0.05;68.83
56600;BME280;51832;48.152;11.530;2022-12-18T00:26:54;96468.84;;;0.04;67.75
56600;BME280;51832;48.152;11.530;2022-12-18T00:31:54;96468.91;;;0.43;66.04
56600;BME280;51832;48.152;11.530;2022-12-18T00:36:54;96488.75;;;0.13;67.37
56600;BME280;51832;48.152;11.530;2022-12-18T00:41:55;96492.97;;;0.14;68.01
56600;BME280;51832;48.152;11.530;2022-12-18T00:47:14;96489.72;;;0.12;67.90
56600;BME280;51832;48.152;11.530;2022-12-18T00:52:14;96492.31;;;-0.18;67.75
56600;BME280;51832;48.152;11.530;2022-12-18T00:57:14;96494.63;;;-0.46;69.94
56600;BME280;51832;48.152;11.530;2022-12-18T01:02:15;96494.56;;;-0.34;69.54
56600;BME280;51832;48.152;11.530;2022-12-18T01:07:15;96508.66;;;-0.69;70.36
56600;BME280;51832;48.152;11.530;2022-12-18T01:12:16;96510.59;;;-0.61;71.00
56600;BME280;51832;48.152;11.530;2022-12-18T01:17:16;96526.06;;;-0.20;68.98
56600;BME280;51832;48.152;11.530;2022-12-18T01:22:16;96522.09;;;0.07;68.31
56600;BME280;51832;48.152;11.530;2022-12-18T01:27:17;96538.44;;;0.07;68.01
56600;BME280;51832;48.152;11.530;2022-12-18T01:32:17;96554.88;;;0.27;68.10
56600;BME280;51832;48.152;11.530;2022-12-18T01:37:18;96542.31;;;0.22;67.10
56600;BME280;51832;48.152;11.530;2022-12-18T01:42:18;96549.88;;;0.05;68.04
56600;BME280;51832;48.152;11.530;2022-12-18T01:52:30;96555.50;;;0.19;67.27
56600;BME280;51832;48.152;11.530;2022-12-18T01:57:32;96555.41;;;0.30;66.51
56600;BME280;51832;48.152;11.530;2022-12-18T02:02:33;96545.03;;;0.21;67.27
56600;BME280;51832;48.152;11.530;2022-12-18T02:08:02;96549.25;;;-0.09;68.00
56600;BME280;51832;48.152;11.530;2022-12-18T02:18:41;96529.19;;;-0.47;70.52
56600;BME280;51832;48.152;11.530;2022-12-18T02:29:15;96532.66;;;-0.06;68.67
56600;BME280;51832;48.152;11.530;2022-12-18T02:34:17;96525.03;;;-0.08;68.54
56600;BME280;51832;48.152;11.530;2022-12-18T02:39:20;96529.38;;;-0.08;68.35
56600;BME280;51832;48.152;11.530;2022-12-18T02:44:22;96532.03;;;-0.50;69.45
56600;BME280;51832;48.152;11.530;2022-12-18T03:00:14;96544.09;;;0.22;67.15
56600;BME280;51832;48.152;11.530;2022-12-18T03:10:30;96526.69;;;0.03;66.85
56600;BME280;51832;48.152;11.530;2022-12-18T03:15:37;96532.50;;;-0.14;67.16
56600;BME280;51832;48.152;11.530;2022-12-18T03:20:41;96515.38;;;-0.06;68.09
56600;BME280;51832;48.152;11.530;2022-12-18T03:25:45;96528.56;;;-0.09;68.11
56600;BME280;51832;48.152;11.530;2022-12-18T03:30:47;96525.72;;;-0.36;69.04
56600;BME280;51832;48.152;11.530;2022-12-18T03:35:50;96531.25;;;-0.20;68.72
56600;BME280;51832;48.152;11.530;2022-12-18T03:41:00;96540.34;;;0.05;68.13
56600;BME280;51832;48.152;11.530;2022-12-18T03:46:21;96534.41;;;-0.16;67.73
56600;BME280;51832;48.152;11.530;2022-12-18T03:56:38;96529.56;;;-0.30;68.81
56600;BME280;51832;48.152;11.530;2022-12-18T04:01:47;96544.47;;;-0.13;68.13
56600;BME280;51832;48.152;11.530;2022-12-18T04:06:50;96541.50;;;-0.60;68.91
56600;BME280;51832;48.152;11.530;2022-12-18T04:11:51;96541.28;;;0.04;67.04
56600;BME280;51832;48.152;11.530;2022-12-18T04:16:52;96544.09;;;0.31;67.23
56600;BME280;51832;48.152;11.530;2022-12-18T04:21:52;96544.66;;;0.25;66.45
56600;BME280;51832;48.152;11.530;2022-12-18T04:26:52;96543.03;;;0.44;66.69
56600;BME280;51832;48.152;11.530;2022-12-18T04:31:53;96553.19;;;0.16;66.96
56600;BME280;51832;48.152;11.530;2022-12-18T04:36:54;96549.75;;;0.16;66.97
56600;BME280;51832;48.152;11.530;2022-12-18T04:41:54;96543.38;;;0.10;67.34
56600;BME280;51832;48.152;11.530;2022-12-18T04:46:55;96548.97;;;-0.15;68.42
56600;BME280;51832;48.152;11.530;2022-12-18T04:51:56;96571.50;;;0.04;67.25
56600;BME280;51832;48.152;11.530;2022-12-18T04:56:56;96582.38;;;-0.03;67.08
56600;BME280;51832;48.152;11.530;2022-12-18T05:01:56;96560.44;;;0.22;65.31
56600;BME280;51832;48.152;11.530;2022-12-18T05:06:57;96575.00;;;-0.07;67.13
56600;BME280;51832;48.152;11.530;2022-12-18T05:11:57;96579.06;;;-0.14;67.31
56600;BME280;51832;48.152;11.530;2022-12-18T05:16:58;96587.59;;;0.07;66.33
56600;BME280;51832;48.152;11.530;2022-12-18T05:21:58;96589.47;;;-0.05;67.48
56600;BME280;51832;48.152;11.530;2022-12-18T05:26:58;96578.81;;;-0.53;68.07
56600;BME280;51832;48.152;11.530;2022-12-18T05:31:59;96584.34;;;-0.78;69.11
56600;BME280;51832;48.152;11.530;2022-12-18T05:36:59;96590.28;;;-0.25;68.45
56600;BME280;51832;48.152;11.530;2022-12-18T05:41:59;96594.59;;;-0.35;68.21
56600;BME280;51832;48.152;11.530;2022-12-18T05:47:00;96590.97;;;-0.23;67.84
56600;BME280;51832;48.152;11.530;2022-12-18T05:52:00;96589.59;;;-0.48;67.89
56600;BME280;51832;48.152;11.530;2022-12-18T05:57:01;96602.31;;;5.27;86.81
56600;BME280;51832;48.152;11.530;2022-12-18T06:02:01;96591.41;;;7.07;73.31
56600;BME280;51832;48.152;11.530;2022-12-18T06:07:01;96604.28;;;4.75;60.20
56600;BME280;51832;48.152;11.530;2022-12-18T06:12:02;96595.41;;;2.48;57.90
56600;BME280;51832;48.152;11.530;2022-12-18T06:17:02;96607.66;;;1.04;63.62
56600;BME280;51832;48.152;11.530;2022-12-18T06:22:03;96601.59;;;0.75;63.47
56600;BME280;51832;48.152;11.530;2022-12-18T06:27:03;96616.09;;;0.47;63.24
56600;BME280;51832;48.152;11.530;2022-12-18T06:32:04;96609.72;;;0.21;64.14
56600;BME280;51832;48.152;11.530;2022-12-18T06:37:04;96626.38;;;-0.44;67.22
56600;BME280;51832;48.152;11.530;2022-12-18T06:42:05;96634.13;;;-0.44;68.42
56600;BME280;51832;48.152;11.530;2022-12-18T06:47:05;96632.91;;;-0.61;68.34
56600;BME280;51832;48.152;11.530;2022-12-18T06:52:05;96641.19;;;-0.25;67.67
56600;BME280;51832;48.152;11.530;2022-12-18T06:57:06;96641.28;;;-0.16;67.18
56600;BME280;51832;48.152;11.530;2022-12-18T07:02:09;96651.69;;;-0.59;68.09
56600;BME280;51832;48.152;11.530;2022-12-18T07:07:10;96662.13;;;-0.49;68.04
56600;BME280;51832;48.152;11.530;2022-12-18T07:12:11;96662.22;;;-0.19;67.14
56600;BME280;51832;48.152;11.530;2022-12-18T07:17:11;96666.22;;;-0.47;68.25
56600;BME280;51832;48.152;11.530;2022-12-18T07:22:11;96672.13;;;-0.99;70.36
56600;BME280;51832;48.152;11.530;2022-12-18T07:27:12;96679.56;;;-1.17;71.11
56600;BME280;51832;48.152;11.530;2022-12-18T07:32:12;96682.78;;;-0.92;70.53
56600;BME280;51832;48.152;11.530;2022-12-18T07:37:12;96671.41;;;-0.90;69.92
56600;BME280;51832;48.152;11.530;2022-12-18T07:42:13;96664.91;;;-0.73;69.88
56600;BME280;51832;48.152;11.530;2022-12-18T07:47:34;96677.00;;;-0.74;69.30
56600;BME280;51832;48.152;11.530;2022-12-18T07:52:35;96679.34;;;-0.70;69.25
56600;BME280;51832;48.152;11.530;2022-12-18T07:57:35;96677.19;;;-0.65;68.31
56600;BME280;51832;48.152;11.530;2022-12-18T08:02:36;96683.19;;;-0.65;68.42
56600;BME280;51832;48.152;11.530;2022-12-18T08:07:36;96671.28;;;-0.88;68.09
56600;BME280;51832;48.152;11.530;2022-12-18T08:12:37;96695.38;;;-0.88;69.54
56600;BME280;51832;48.152;11.530;2022-12-18T08:17:37;96705.59;;;-1.09;70.76
56600;BME280;51832;48.152;11.530;2022-12-18T08:22:38;96706.56;;;-1.32;70.63
56600;BME280;51832;48.152;11.530;2022-12-18T08:27:39;96702.59;;;-1.25;70.34
56600;BME280;51832;48.152;11.530;2022-12-18T08:32:39;96708.59;;;-0.70;68.92
56600;BME280;51832;48.152;11.530;2022-12-18T08:37:40;96698.75;;;-0.76;68.39
56600;BME280;51832;48.152;11.530;2022-12-18T08:42:40;96698.00;;;-0.56;68.26
56600;BME280;51832;48.152;11.530;2022-12-18T08:48:00;96713.28;;;-0.32;67.51
56600;BME280;51832;48.152;11.530;2022-12-18T08:53:00;96717.63;;;-0.01;65.85
56600;BME280;51832;48.152;11.530;2022-12-18T08:58:01;96712.69;;;0.17;64.23
56600;BME280;51832;48.152;11.530;2022-12-18T09:03:01;96712.44;;;-0.01;64.46
56600;BME280;51832;48.152;11.530;2022-12-18T09:08:02;96721.81;;;-0.41;66.32
56600;BME280;51832;48.152;11.530;2022-12-18T09:13:02;96726.00;;;-0.08;65.26
56600;BME280;51832;48.152;11.530;2022-12-18T09:18:03;96731.81;;;0.05;64.87
56600;BME280;51832;48.152;11.530;2022-12-18T09:23:04;96729.16;;;0.37;63.23
56600;BME280;51832;48.152;11.530;2022-12-18T09:28:09;96717.78;;;-0.13;65.40
56600;BME280;51832;48.152;11.530;2022-12-18T09:33:10;96706.69;;;-0.04;64.19
56600;BME280;51832;48.152;11.530;2022-12-18T09:38:13;96715.25;;;-0.24;65.83
56600;BME280;51832;48.152;11.530;2022-12-18T09:43:18;96706.31;;;0.00;65.39
56600;BME280;51832;48.152;11.530;2022-12-18T09:48:27;96713.13;;;-0.19;64.52
56600;BME280;51832;48.152;11.530;2022-12-18T09:53:33;96708.09;;;0.00;64.61
56600;BME280;51832;48.152;11.530;2022-12-18T09:58:43;96703.25;;;-0.25;65.70
56600;BME280;51832;48.152;11.530;2022-12-18T10:03:45;96707.72;;;-0.16;64.70
56600;BME280;51832;48.152;11.530;2022-12-18T10:19:43;96681.50;;;0.40;62.44
56600;BME280;51832;48.152;11.530;2022-12-18T10:30:25;96678.34;;;0.36;62.73
56600;BME280;51832;48.152;11.530;2022-12-18T10:35:26;96661.19;;;0.45;62.18
56600;BME280;51832;48.152;11.530;2022-12-18T10:40:27;96660.50;;;0.43;61.62
56600;BME280;51832;48.152;11.530;2022-12-18T10:45:27;96667.22;;;0.55;61.66
56600;BME280;51832;48.152;11.530;2022-12-18T10:50:36;96661.63;;;0.50;62.53
56600;BME280;51832;48.152;11.530;2022-12-18T10:55:39;96653.97;;;0.79;61.94
56600;BME280;51832;48.152;11.530;2022-12-18T11:00:41;96655.59;;;0.40;63.20
56600;BME280;51832;48.152;11.530;2022-12-18T11:05:41;96673.47;;;0.83;61.20
56600;BME280;51832;48.152;11.530;2022-12-18T11:10:46;96673.50;;;0.52;62.63
56600;BME280;51832;48.152;11.530;2022-12-18T11:15:47;96685.28;;;0.66;61.94
56600;BME280;51832;48.152;11.530;2022-12-18T11:20:57;96680.06;;;0.56;62.74
56600;BME280;51832;48.152;11.530;2022-12-18T11:26:00;96681.59;;;0.68;61.92
56600;BME280;51832;48.152;11.530;2022-12-18T11:31:15;96682.38;;;0.29;61.84
56600;BME280;51832;48.152;11.530;2022-12-18T11:36:17;96665.09;;;0.60;62.03
56600;BME280;51832;48.152;11.530;2022-12-18T11:41:39;96672.38;;;0.85;62.08
56600;BME280;51832;48.152;11.530;2022-12-18T11:47:03;96666.56;;;0.53;61.14
56600;BME280;51832;48.152;11.530;2022-12-18T11:52:16;96649.25;;;0.93;60.60
56600;BME280;51832;48.152;11.530;2022-12-18T11:57:38;96649.97;;;1.15;60.05
56600;BME280;51832;48.152;11.530;2022-12-18T12:14:28;96647.91;;;0.28;63.13
56600;BME280;51832;48.152;11.530;2022-12-18T12:25:07;96639.28;;;0.18;66.40
56600;BME280;51832;48.152;11.530;2022-12-18T12:30:34;96638.28;;;0.10;65.11
56600;BME280;51832;48.152;11.530;2022-12-18T12:40:53;96633.25;;;0.39;71.86
56600;BME280;51832;48.152;11.530;2022-12-18T12:45:58;96624.91;;;0.35;64.76
56600;BME280;51832;48.152;11.530;2022-12-18T12:51:02;96628.34;;;-0.16;66.09
56600;BME280;51832;48.152;11.530;2022-12-18T12:56:04;96622.22;;;-0.15;65.78
56600;BME280;51832;48.152;11.530;2022-12-18T13:01:14;96636.16;;;-0.06;65.42
56600;BME280;51832;48.152;11.530;2022-12-18T13:11:37;96640.59;;;-0.50;66.44
56600;BME280;51832;48.152;11.530;2022-12-18T13:22:30;96649.81;;;0.26;63.80
56600;BME280;51832;48.152;11.530;2022-12-18T13:28:03;96647.41;;;0.14;64.86
56600;BME280;51832;48.152;11.530;2022-12-18T13:43:35;96642.88;;;0.27;64.18
56600;BME280;51832;48.152;11.530;2022-12-18T13:48:37;96644.06;;;0.23;64.52
56600;BME280;51832;48.152;11.530;2022-12-18T13:53:43;96642.91;;;-0.36;65.75
56600;BME280;51832;48.152;11.530;2022-12-18T13:58:45;96621.03;;;-0.63;67.05
56600;BME280;51832;48.152;11.530;2022-12-18T14:03:45;96630.47;;;-0.21;66.26
56600;BME280;51832;48.152;11.530;2022-12-18T14:08:46;96630.22;;;-0.18;65.44
56600;BME280;51832;48.152;11.530;2022-12-18T14:13:47;96639.41;;;0.17;63.81
56600;BME280;51832;48.152;11.530;2022-12-18T14:23:48;96638.44;;;0.18;64.77
56600;BME280;51832;48.152;11.530;2022-12-18T14:28:49;96650.66;;;0.06;63.84
56600;BME280;51832;48.152;11.530;2022-12-18T14:33:49;96649.34;;;-0.30;65.74
56600;BME280;51832;48.152;11.530;2022-12-18T14:38:54;96642.41;;;0.12;65.09
56600;BME280;51832;48.152;11.530;2022-12-18T14:44:05;96643.91;;;-0.48;66.94
56600;BME280;51832;48.152;11.530;2022-12-18T14:49:23;96640.16;;;-0.87;68.99
56600;BME280;51832;48.152;11.530;2022-12-18T14:54:25;96638.03;;;-0.50;67.80
56600;BME280;51832;48.152;11.530;2022-12-18T14:59:27;96639.69;;;-0.92;68.31
56600;BME280;51832;48.152;11.530;2022-12-18T15:04:39;96628.00;;;-1.07;70.28
56600;BME280;51832;48.152;11.530;2022-12-18T15:09:42;96642.94;;;-0.79;68.89
56600;BME280;51832;48.152;11.530;2022-12-18T15:14:43;96640.72;;;-0.51;68.82
56600;BME280;51832;48.152;11.530;2022-12-18T15:19:45;96643.66;;;-0.24;67.45
56600;BME280;51832;48.152;11.530;2022-12-18T15:24:46;96639.22;;;-0.12;66.81
56600;BME280;51832;48.152;11.530;2022-12-18T15:30:21;96648.69;;;-0.22;65.73
56600;BME280;51832;48.152;11.530;2022-12-18T15:35:24;96631.84;;;0.04;66.12
56600;BME280;51832;48.152;11.530;2022-12-18T15:40:25;96640.56;;;0.03;66.58
56600;BME280;51832;48.152;11.530;2022-12-18T15:45:25;96625.47;;;0.08;65.73
56600;BME280;51832;48.152;11.530;2022-12-18T15:50:25;96627.94;;;-0.11;67.06
56600;BME280;51832;48.152;11.530;2022-12-18T15:55:26;96632.50;;;-0.77;68.76
56600;BME280;51832;48.152;11.530;2022-12-18T16:00:45;96640.72;;;-1.26;70.91
56600;BME280;51832;48.152;11.530;2022-12-18T16:05:45;96628.66;;;-0.83;69.84
56600;BME280;51832;48.152;11.530;2022-12-18T16:10:46;96632.19;;;-0.84;70.16
56600;BME280;51832;48.152;11.530;2022-12-18T16:15:46;96629.00;;;-0.55;68.32
56600;BME280;51832;48.152;11.530;2022-12-18T16:20:47;96642.19;;;-0.58;68.50
56600;BME280;51832;48.152;11.530;2022-12-18T16:25:47;96626.84;;;-0.50;68.40
56600;BME280;51832;48.152;11.530;2022-12-18T16:30:47;96617.22;;;-0.69;68.64
56600;BME280;51832;48.152;11.530;2022-12-18T16:35:52;96627.94;;;-0.85;67.51
56600;BME280;51832;48.152;11.530;2022-12-18T16:40:52;96626.53;;;-0.89;69.21
56600;BME280;51832;48.152;11.530;2022-12-18T16:46:11;96622.78;;;-1.28;71.00
56600;BME280;51832;48.152;11.530;2022-12-18T16:51:12;96619.09;;;-1.14;70.60
56600;BME280;51832;48.152;11.530;2022-12-18T16:56:12;96621.72;;;-0.93;70.18
56600;BME280;51832;48.152;11.530;2022-12-18T17:01:12;96632.41;;;-0.87;69.64
56600;BME280;51832;48.152;11.530;2022-12-18T17:06:13;96624.44;;;-0.63;69.12
56600;BME280;51832;48.152;11.530;2022-12-18T17:11:13;96632.44;;;-0.66;68.63
56600;BME280;51832;48.152;11.530;2022-12-18T17:16:14;96616.16;;;-0.78;69.35
56600;BME280;51832;48.152;11.530;2022-12-18T17:21:15;96617.31;;;-0.70;69.28
56600;BME280;51832;48.152;11.530;2022-12-18T17:26:15;96618.56;;;-0.33;68.70
56600;BME280;51832;48.152;11.530;2022-12-18T17:31:20;96616.88;;;-0.76;67.67
56600;BME280;51832;48.152;11.530;2022-12-18T17:36:21;96615.59;;;-1.13;71.31
56600;BME280;51832;48.152;11.530;2022-12-18T17:41:23;96615.19;;;-0.97;70.15
56600;BME280;51832;48.152;11.530;2022-12-18T17:46:25;96622.53;;;-1.36;72.04
56600;BME280;51832;48.152;11.530;2022-12-18T17:51:26;96624.28;;;-1.36;71.59
56600;BME280;51832;48.152;11.530;2022-12-18T17:56:27;96618.44;;;-1.61;73.19
56600;BME280;51832;48.152;11.530;2022-12-18T18:01:27;96612.34;;;-1.49;72.41
56600;BME280;51832;48.152;11.530;2022-12-18T18:06:28;96619.63;;;-1.54;72.83
56600;BME280;51832;48.152;11.530;2022-12-18T18:11:28;96608.72;;;-1.57;72.40
56600;BME280;51832;48.152;11.530;2022-12-18T18:16:49;96619.44;;;-1.08;71.69
56600;BME280;51832;48.152;11.530;2022-12-18T18:21:51;96609.50;;;-1.34;72.02
56600;BME280;51832;48.152;11.530;2022-12-18T18:26:53;96609.66;;;-1.47;71.99
56600;BME280;51832;48.152;11.530;2022-12-18T18:31:53;96608.34;;;-1.30;71.56
56600;BME280;51832;48.152;11.530;2022-12-18T18:36:54;96606.47;;;-1.28;72.31
56600;BME280;51832;48.152;11.530;2022-12-18T18:41:54;96594.53;;;-0.97;71.84
56600;BME280;51832;48.152;11.530;2022-12-18T18:46:56;96608.25;;;-1.62;72.37
56600;BME280;51832;48.152;11.530;2022-12-18T18:51:56;96594.53;;;-1.63;73.00
56600;BME280;51832;48.152;11.530;2022-12-18T18:56:58;96602.19;;;-1.18;70.47
56600;BME280;51832;48.152;11.530;2022-12-18T19:01:59;96582.78;;;-1.01;71.31
56600;BME280;51832;48.152;11.530;2022-12-18T19:06:59;96591.28;;;-1.11;70.23
56600;BME280;51832;48.152;11.530;2022-12-18T19:12:00;96589.13;;;-1.37;71.61
56600;BME280;51832;48.152;11.530;2022-12-18T19:17:19;96572.53;;;-1.35;72.10
56600;BME280;51832;48.152;11.530;2022-12-18T19:22:22;96587.38;;;-1.59;73.08
56600;BME280;51832;48.152;11.530;2022-12-18T19:27:22;96590.41;;;-1.43;72.51
56600;BME280;51832;48.152;11.530;2022-12-18T19:32:23;96582.72;;;-1.22;71.65
56600;BME280;51832;48.152;11.530;2022-12-18T19:37:23;96583.38;;;-1.09;71.38
56600;BME280;51832;48.152;11.530;2022-12-18T19:42:24;96584.63;;;-1.24;70.92
56600;BME280;51832;48.152;11.530;2022-12-18T19:47:24;96582.28;;;-1.27;71.33
56600;BME280;51832;48.152;11.530;2022-12-18T19:52:25;96583.25;;;-1.08;69.37
56600;BME280;51832;48.152;11.530;2022-12-18T19:57:25;96582.78;;;-1.01;70.22
56600;BME280;51832;48.152;11.530;2022-12-18T20:02:26;96573.13;;;-1.31;69.93
56600;BME280;51832;48.152;11.530;2022-12-18T20:07:26;96581.81;;;-1.32;70.17
56600;BME280;51832;48.152;11.530;2022-12-18T20:12:27;96575.13;;;-1.35;70.55
56600;BME280;51832;48.152;11.530;2022-12-18T20:17:30;96577.03;;;-1.37;70.51
56600;BME280;51832;48.152;11.530;2022-12-18T20:22:30;96559.66;;;-1.46;72.25
56600;BME280;51832;48.152;11.530;2022-12-18T20:27:30;96557.91;;;-1.46;71.53
56600;BME280;51832;48.152;11.530;2022-12-18T20:32:31;96553.13;;;-1.72;71.92
56600;BME280;51832;48.152;11.530;2022-12-18T20:37:31;96546.38;;;-1.30;70.53
56600;BME280;51832;48.152;11.530;2022-12-18T20:42:32;96549.78;;;-1.30;69.96
56600;BME280;51832;48.152;11.530;2022-12-18T20:47:32;96556.91;;;-1.22;71.27
56600;BME280;51832;48.152;11.530;2022-12-18T20:52:32;96549.84;;;-1.20;69.96
56600;BME280;51832;48.152;11.530;2022-12-18T20:57:33;96578.91;;;-1.39;68.99
56600;BME280;51832;48.152;11.530;2022-12-18T21:02:33;96561.97;;;-1.32;70.92
56600;BME280;51832;48.152;11.530;2022-12-18T21:07:34;96529.13;;;-1.30;71.09
56600;BME280;51832;48.152;11.530;2022-12-18T21:12:34;96533.16;;;-1.37;71.88
56600;BME280;51832;48.152;11.530;2022-12-18T21:17:38;96533.69;;;-1.65;71.31
56600;BME280;51832;48.152;11.530;2022-12-18T21:22:38;96529.34;;;-1.33;70.76
56600;BME280;51832;48.152;11.530;2022-12-18T21:27:39;96539.44;;;-1.30;71.33
56600;BME280;51832;48.152;11.530;2022-12-18T21:32:40;96523.75;;;-1.06;70.32
56600;BME280;51832;48.152;11.530;2022-12-18T21:37:40;96519.41;;;-1.05;70.00
56600;BME280;51832;48.152;11.530;2022-12-18T21:42:41;96519.25;;;-1.25;70.70
56600;BME280;51832;48.152;11.530;2022-12-18T21:48:00;96514.88;;;-1.13;70.38
56600;BME280;51832;48.152;11.530;2022-12-18T21:53:00;96503.28;;;-0.98;69.52
56600;BME280;51832;48.152;11.530;2022-12-18T21:58:01;96504.69;;;-1.26;70.29
56600;BME280;51832;48.152;11.530;2022-12-18T22:03:01;96523.78;;;-1.17;70.97
56600;BME280;51832;48.152;11.530;2022-12-18T22:08:02;96543.69;;;-0.97;70.08
56600;BME280;51832;48.152;11.530;2022-12-18T22:13:03;96547.75;;;-0.94;69.29
56600;BME280;51832;48.152;11.530;2022-12-18T22:18:04;96540.00;;;-0.94;68.82
56600;BME280;51832;48.152;11.530;2022-12-18T22:23:04;96502.88;;;-0.82;68.60
56600;BME280;51832;48.152;11.530;2022-12-18T22:28:04;96494.03;;;-0.59;68.22
56600;BME280;51832;48.152;11.530;2022-12-18T22:33:23;96502.72;;;-0.60;68.02
56600;BME280;51832;48.152;11.530;2022-12-18T22:38:24;96515.78;;;-0.82;68.47
56600;BME280;51832;48.152;11.530;2022-12-18T22:43:24;96506.00;;;-0.99;68.81
56600;BME280;51832;48.152;11.530;2022-12-18T22:48:25;96499.47;;;-0.83;68.37
56600;BME280;51832;48.152;11.530;2022-12-18T22:53:25;96506.00;;;-0.99;69.82
56600;BME280;51832;48.152;11.530;2022-12-18T22:58:26;96493.13;;;-0.90;69.15
56600;BME280;51832;48.152;11.530;2022-12-18T23:03:26;96496.50;;;-0.57;67.70
56600;BME280;51832;48.152;11.530;2022-12-18T23:08:27;96496.72;;;-0.60;68.01
56600;BME280;51832;48.152;11.530;2022-12-18T23:13:27;96494.53;;;-0.65;67.75
56600;BME280;51832;48.152;11.530;2022-12-18T23:18:28;96486.69;;;-0.54;67.85
56600;BME280;51832;48.152;11.530;2022-12-18T23:23:28;96463.72;;;-0.78;68.58
56600;BME280;51832;48.152;11.530;2022-12-18T23:28:30;96452.56;;;-0.78;67.14
56600;BME280;51832;48.152;11.530;2022-12-18T23:33:30;96445.78;;;-1.00;68.41
56600;BME280;51832;48.152;11.530;2022-12-18T23:38:32;96448.88;;;-0.55;67.75
56600;BME280;51832;48.152;11.530;2022-12-18T23:43:33;96434.41;;;-0.88;68.10
56600;BME280;51832;48.152;11.530;2022-12-18T23:48:33;96426.09;;;-0.91;69.20
56600;BME280;51832;48.152;11.530;2022-12-18T23:53:34;96444.81;;;-0.99;69.52
56600;BME280;51832;48.152;11.530;2022-12-18T23:58:35;96457.88;;;-1.00;68.96
